Hachioji, Japan
Current Conditions -  °F | °C
As of 2:05 PM on Saturday 20 Dec 2014 (Local Time) from RJTY Reporting Station
Light Rain Light Rain  
Wind Chill: 38°   Ceiling: 1500
Heat Index: 41°   Visibility: 5mi
Dew Point: 37°   Wind: 5mph
Humidity: 87%   Direction: 40°NE
Pressure: 30.03"   Gusts: NA
Location:  35.66°N, 139.33°E
Report Text: RJTY 200505Z AUTO 04004KT 5SM -RA BR FEW006 OVC015 05/03 A3003 RMK AO2
Loading
Personal Weather Stations






























Interactive Weather Map New forecast layout! Learn more

10-Day Weather Forecast

Advertisements
Track Severe Weather on mobile